sensor_id;sensor_type;location;lat;lon;timestamp;pressure;altitude;pressure_sealevel;temperature;humidity
10587;BME280;5341;47.606;7.576;2022-11-15T00:00:57;98577.38;;;11.13;70.50
10587;BME280;5341;47.606;7.576;2022-11-15T00:03:57;98571.66;;;11.16;70.95
10587;BME280;5341;47.606;7.576;2022-11-15T00:06:53;98566.75;;;11.20;70.80
10587;BME280;5341;47.606;7.576;2022-11-15T00:09:40;98562.41;;;11.19;70.69
10587;BME280;5341;47.606;7.576;2022-11-15T00:12:27;98553.56;;;11.18;70.46
10587;BME280;5341;47.606;7.576;2022-11-15T00:15:15;98558.09;;;11.18;70.68
10587;BME280;5341;47.606;7.576;2022-11-15T00:18:03;98548.22;;;11.18;70.52
10587;BME280;5341;47.606;7.576;2022-11-15T00:20:50;98545.53;;;11.18;70.63
10587;BME280;5341;47.606;7.576;2022-11-15T00:23:38;98543.88;;;11.17;70.08
10587;BME280;5341;47.606;7.576;2022-11-15T00:26:24;98536.69;;;11.18;70.46
10587;BME280;5341;47.606;7.576;2022-11-15T00:29:11;98539.53;;;11.16;70.26
10587;BME280;5341;47.606;7.576;2022-11-15T00:31:58;98541.19;;;11.17;70.42
10587;BME280;5341;47.606;7.576;2022-11-15T00:34:44;98521.63;;;11.17;70.74
10587;BME280;5341;47.606;7.576;2022-11-15T00:37:31;98525.97;;;11.18;70.77
10587;BME280;5341;47.606;7.576;2022-11-15T00:40:20;98525.16;;;11.17;70.58
10587;BME280;5341;47.606;7.576;2022-11-15T00:43:07;98525.97;;;11.18;70.84
10587;BME280;5341;47.606;7.576;2022-11-15T00:45:53;98526.78;;;11.18;70.33
10587;BME280;5341;47.606;7.576;2022-11-15T00:48:40;98523.28;;;11.18;70.58
10587;BME280;5341;47.606;7.576;2022-11-15T00:51:26;98536.47;;;11.19;71.06
10587;BME280;5341;47.606;7.576;2022-11-15T00:54:12;98531.94;;;11.20;70.65
10587;BME280;5341;47.606;7.576;2022-11-15T00:57:00;98534.63;;;11.20;71.12
10587;BME280;5341;47.606;7.576;2022-11-15T00:59:47;98530.94;;;11.21;70.26
10587;BME280;5341;47.606;7.576;2022-11-15T01:02:37;98525.59;;;11.21;70.99
10587;BME280;5341;47.606;7.576;2022-11-15T01:05:24;98520.22;;;11.21;70.41
10587;BME280;5341;47.606;7.576;2022-11-15T01:08:13;98514.88;;;11.21;70.62
10587;BME280;5341;47.606;7.576;2022-11-15T01:11:04;98514.47;;;11.24;70.76
10587;BME280;5341;47.606;7.576;2022-11-15T01:13:52;98509.75;;;11.26;71.13
10587;BME280;5341;47.606;7.576;2022-11-15T01:16:40;98507.91;;;11.26;70.67
10587;BME280;5341;47.606;7.576;2022-11-15T01:19:26;98498.88;;;11.27;71.11
10587;BME280;5341;47.606;7.576;2022-11-15T01:22:13;98506.72;;;11.29;70.66
10587;BME280;5341;47.606;7.576;2022-11-15T01:25:01;98491.28;;;11.31;70.99
10587;BME280;5341;47.606;7.576;2022-11-15T01:27:55;98488.41;;;11.32;70.89
10587;BME280;5341;47.606;7.576;2022-11-15T01:30:46;98484.72;;;11.33;70.93
10587;BME280;5341;47.606;7.576;2022-11-15T01:33:34;98484.31;;;11.36;71.32
10587;BME280;5341;47.606;7.576;2022-11-15T01:36:22;98494.00;;;11.37;70.57
10587;BME280;5341;47.606;7.576;2022-11-15T01:39:08;98487.63;;;11.38;70.83
10587;BME280;5341;47.606;7.576;2022-11-15T01:41:57;98497.34;;;11.39;70.46
10587;BME280;5341;47.606;7.576;2022-11-15T01:44:47;98501.88;;;11.39;70.48
10587;BME280;5341;47.606;7.576;2022-11-15T01:47:44;98501.22;;;11.37;71.53
10587;BME280;5341;47.606;7.576;2022-11-15T01:50:33;98498.28;;;11.32;72.09
10587;BME280;5341;47.606;7.576;2022-11-15T01:53:24;98494.78;;;11.31;72.26
10587;BME280;5341;47.606;7.576;2022-11-15T01:56:19;98494.78;;;11.31;72.18
10587;BME280;5341;47.606;7.576;2022-11-15T01:59:08;98503.84;;;11.30;71.67
10587;BME280;5341;47.606;7.576;2022-11-15T02:01:57;98510.03;;;11.31;71.87
10587;BME280;5341;47.606;7.576;2022-11-15T02:04:46;98498.28;;;11.32;71.98
10587;BME280;5341;47.606;7.576;2022-11-15T02:07:35;98481.22;;;11.33;71.48
10587;BME280;5341;47.606;7.576;2022-11-15T02:10:24;98481.22;;;11.33;71.70
10587;BME280;5341;47.606;7.576;2022-11-15T02:13:11;98476.69;;;11.33;71.79
10587;BME280;5341;47.606;7.576;2022-11-15T02:16:08;98465.97;;;11.33;71.25
10587;BME280;5341;47.606;7.576;2022-11-15T02:19:16;98472.16;;;11.34;71.68
10587;BME280;5341;47.606;7.576;2022-11-15T02:22:21;98466.78;;;11.34;71.61
10587;BME280;5341;47.606;7.576;2022-11-15T02:25:33;98464.94;;;11.34;71.03
10587;BME280;5341;47.606;7.576;2022-11-15T02:28:41;98465.16;;;11.33;71.63
10587;BME280;5341;47.606;7.576;2022-11-15T02:31:41;98460.63;;;11.33;71.10
10587;BME280;5341;47.606;7.576;2022-11-15T02:34:45;98454.25;;;11.34;71.36
10587;BME280;5341;47.606;7.576;2022-11-15T02:37:42;98456.09;;;11.34;71.28
10587;BME280;5341;47.606;7.576;2022-11-15T02:40:38;98455.06;;;11.35;70.86
10587;BME280;5341;47.606;7.576;2022-11-15T02:43:31;98449.72;;;11.35;71.60
10587;BME280;5341;47.606;7.576;2022-11-15T02:46:41;98452.38;;;11.35;70.96
10587;BME280;5341;47.606;7.576;2022-11-15T02:49:49;98460.63;;;11.33;71.47
10587;BME280;5341;47.606;7.576;2022-11-15T02:52:37;98463.91;;;11.35;71.74
10587;BME280;5341;47.606;7.576;2022-11-15T02:55:30;98455.06;;;11.35;71.66
10587;BME280;5341;47.606;7.576;2022-11-15T02:58:45;98441.47;;;11.36;70.92
10587;BME280;5341;47.606;7.576;2022-11-15T03:01:49;98448.50;;;11.37;71.58
10587;BME280;5341;47.606;7.576;2022-11-15T03:04:45;98432.63;;;11.36;71.80
10587;BME280;5341;47.606;7.576;2022-11-15T03:07:41;98430.56;;;11.38;71.72
10587;BME280;5341;47.606;7.576;2022-11-15T03:10:37;98432.25;;;11.39;71.82
10587;BME280;5341;47.606;7.576;2022-11-15T03:13:36;98436.59;;;11.40;72.13
10587;BME280;5341;47.606;7.576;2022-11-15T03:16:33;98433.72;;;11.41;72.22
10587;BME280;5341;47.606;7.576;2022-11-15T03:19:31;98426.50;;;11.42;71.82
10587;BME280;5341;47.606;7.576;2022-11-15T03:22:22;98423.00;;;11.41;71.72
10587;BME280;5341;47.606;7.576;2022-11-15T03:25:14;98424.66;;;11.42;71.61
10587;BME280;5341;47.606;7.576;2022-11-15T03:28:07;98421.97;;;11.42;71.48
10587;BME280;5341;47.606;7.576;2022-11-15T03:30:58;98414.78;;;11.43;71.42
10587;BME280;5341;47.606;7.576;2022-11-15T03:33:48;98407.75;;;11.42;71.14
10587;BME280;5341;47.606;7.576;2022-11-15T03:36:38;98419.28;;;11.42;71.73
10587;BME280;5341;47.606;7.576;2022-11-15T03:39:25;98416.63;;;11.42;71.40
10587;BME280;5341;47.606;7.576;2022-11-15T03:42:20;98414.97;;;11.41;71.20
10587;BME280;5341;47.606;7.576;2022-11-15T03:45:14;98422.19;;;11.41;71.64
10587;BME280;5341;47.606;7.576;2022-11-15T03:48:06;98418.66;;;11.40;71.83
10587;BME280;5341;47.606;7.576;2022-11-15T03:50:55;98425.88;;;11.40;71.86
10587;BME280;5341;47.606;7.576;2022-11-15T03:53:44;98419.69;;;11.39;71.32
10587;BME280;5341;47.606;7.576;2022-11-15T03:56:31;98419.69;;;11.39;71.69
10587;BME280;5341;47.606;7.576;2022-11-15T03:59:18;98422.38;;;11.39;71.78
10587;BME280;5341;47.606;7.576;2022-11-15T04:02:05;98414.34;;;11.39;71.72
10587;BME280;5341;47.606;7.576;2022-11-15T04:04:51;98417.84;;;11.40;72.06
10587;BME280;5341;47.606;7.576;2022-11-15T04:07:38;98430.22;;;11.41;71.35
10587;BME280;5341;47.606;7.576;2022-11-15T04:10:26;98425.06;;;11.39;72.02
10587;BME280;5341;47.606;7.576;2022-11-15T04:13:14;98423.19;;;11.40;71.83
10587;BME280;5341;47.606;7.576;2022-11-15T04:16:00;98426.03;;;11.38;71.95
10587;BME280;5341;47.606;7.576;2022-11-15T04:18:49;98425.06;;;11.39;71.80
10587;BME280;5341;47.606;7.576;2022-11-15T04:21:56;98429.38;;;11.40;71.85
10587;BME280;5341;47.606;7.576;2022-11-15T04:25:01;98414.50;;;11.38;72.23
10587;BME280;5341;47.606;7.576;2022-11-15T04:27:50;98407.31;;;11.38;72.45
10587;BME280;5341;47.606;7.576;2022-11-15T04:30:36;98415.34;;;11.38;72.73
10587;BME280;5341;47.606;7.576;2022-11-15T04:33:23;98422.53;;;11.38;72.13
10587;BME280;5341;47.606;7.576;2022-11-15T04:36:09;98421.72;;;11.37;72.37
10587;BME280;5341;47.606;7.576;2022-11-15T04:39:13;98425.22;;;11.38;72.47
10587;BME280;5341;47.606;7.576;2022-11-15T04:42:01;98419.03;;;11.37;72.28
10587;BME280;5341;47.606;7.576;2022-11-15T04:44:49;98415.53;;;11.37;71.99
10587;BME280;5341;47.606;7.576;2022-11-15T04:47:35;98415.34;;;11.38;72.19
10587;BME280;5341;47.606;7.576;2022-11-15T04:50:22;98409.34;;;11.36;72.48
10587;BME280;5341;47.606;7.576;2022-11-15T04:53:08;98408.34;;;11.37;72.21
10587;BME280;5341;47.606;7.576;2022-11-15T04:55:54;98410.19;;;11.37;72.14
10587;BME280;5341;47.606;7.576;2022-11-15T04:58:41;98404.81;;;11.37;72.07
10587;BME280;5341;47.606;7.576;2022-11-15T05:01:29;98408.34;;;11.37;71.90
10587;BME280;5341;47.606;7.576;2022-11-15T05:04:15;98397.63;;;11.37;72.29
10587;BME280;5341;47.606;7.576;2022-11-15T05:07:06;98396.78;;;11.37;72.33
10587;BME280;5341;47.606;7.576;2022-11-15T05:09:52;98402.16;;;11.37;72.31
10587;BME280;5341;47.606;7.576;2022-11-15T05:12:39;98393.28;;;11.36;72.03
10587;BME280;5341;47.606;7.576;2022-11-15T05:15:26;98400.28;;;11.37;72.35
10587;BME280;5341;47.606;7.576;2022-11-15T05:18:14;98391.44;;;11.37;71.92
10587;BME280;5341;47.606;7.576;2022-11-15T05:21:03;98396.78;;;11.37;71.67
10587;BME280;5341;47.606;7.576;2022-11-15T05:23:50;98397.00;;;11.35;71.87
10587;BME280;5341;47.606;7.576;2022-11-15T05:26:36;98395.97;;;11.36;71.62
10587;BME280;5341;47.606;7.576;2022-11-15T05:29:22;98383.41;;;11.37;71.82
10587;BME280;5341;47.606;7.576;2022-11-15T05:32:09;98383.59;;;11.35;72.16
10587;BME280;5341;47.606;7.576;2022-11-15T05:34:58;98383.81;;;11.34;71.68
10587;BME280;5341;47.606;7.576;2022-11-15T05:37:44;98378.47;;;11.34;71.76
10587;BME280;5341;47.606;7.576;2022-11-15T05:40:31;98380.31;;;11.33;72.17
10587;BME280;5341;47.606;7.576;2022-11-15T05:43:19;98381.13;;;11.34;71.78
10587;BME280;5341;47.606;7.576;2022-11-15T05:46:05;98375.97;;;11.32;71.97
10587;BME280;5341;47.606;7.576;2022-11-15T05:48:53;98367.94;;;11.32;71.47
10587;BME280;5341;47.606;7.576;2022-11-15T05:51:42;98371.44;;;11.33;71.72
10587;BME280;5341;47.606;7.576;2022-11-15T05:54:30;98366.09;;;11.33;72.19
10587;BME280;5341;47.606;7.576;2022-11-15T05:57:17;98363.41;;;11.33;72.26
10587;BME280;5341;47.606;7.576;2022-11-15T06:00:05;98362.41;;;11.34;72.29
10587;BME280;5341;47.606;7.576;2022-11-15T06:02:52;98366.94;;;11.33;71.78
10587;BME280;5341;47.606;7.576;2022-11-15T06:05:38;98357.88;;;11.34;72.10
10587;BME280;5341;47.606;7.576;2022-11-15T06:08:27;98362.19;;;11.35;72.48
10587;BME280;5341;47.606;7.576;2022-11-15T06:11:14;98352.50;;;11.34;72.38
10587;BME280;5341;47.606;7.576;2022-11-15T06:14:01;98357.03;;;11.34;72.68
10587;BME280;5341;47.606;7.576;2022-11-15T06:16:48;98365.06;;;11.34;72.41
10587;BME280;5341;47.606;7.576;2022-11-15T06:19:34;98364.88;;;11.35;72.56
10587;BME280;5341;47.606;7.576;2022-11-15T06:22:21;98354.16;;;11.35;73.16
10587;BME280;5341;47.606;7.576;2022-11-15T06:25:11;98348.81;;;11.35;73.16
10587;BME280;5341;47.606;7.576;2022-11-15T06:27:59;98347.78;;;11.36;72.49
10587;BME280;5341;47.606;7.576;2022-11-15T06:30:47;98354.16;;;11.35;72.90
10587;BME280;5341;47.606;7.576;2022-11-15T06:33:38;98358.50;;;11.36;73.10
10587;BME280;5341;47.606;7.576;2022-11-15T06:36:24;98363.84;;;11.36;72.87
10587;BME280;5341;47.606;7.576;2022-11-15T06:39:12;98362.00;;;11.37;73.37
10587;BME280;5341;47.606;7.576;2022-11-15T06:42:00;98360.97;;;11.38;73.03
10587;BME280;5341;47.606;7.576;2022-11-15T06:44:47;98352.94;;;11.38;73.48
10587;BME280;5341;47.606;7.576;2022-11-15T06:47:33;98358.28;;;11.38;73.58
10587;BME280;5341;47.606;7.576;2022-11-15T06:50:20;98360.78;;;11.39;73.14
10587;BME280;5341;47.606;7.576;2022-11-15T06:53:06;98359.13;;;11.38;73.46
10587;BME280;5341;47.606;7.576;2022-11-15T06:55:53;98359.97;;;11.39;73.51
10587;BME280;5341;47.606;7.576;2022-11-15T06:58:43;98358.94;;;11.40;73.02
10587;BME280;5341;47.606;7.576;2022-11-15T07:01:33;98360.78;;;11.39;73.70
10587;BME280;5341;47.606;7.576;2022-11-15T07:04:20;98364.09;;;11.41;73.90
10587;BME280;5341;47.606;7.576;2022-11-15T07:07:06;98358.75;;;11.41;73.55
10587;BME280;5341;47.606;7.576;2022-11-15T07:09:52;98362.25;;;11.42;73.77
10587;BME280;5341;47.606;7.576;2022-11-15T07:12:39;98359.56;;;11.42;73.97
10587;BME280;5341;47.606;7.576;2022-11-15T07:15:27;98361.22;;;11.43;74.10
10587;BME280;5341;47.606;7.576;2022-11-15T07:18:12;98361.22;;;11.43;74.14
10587;BME280;5341;47.606;7.576;2022-11-15T07:21:02;98360.19;;;11.44;73.99
10587;BME280;5341;47.606;7.576;2022-11-15T07:23:58;98354.00;;;11.43;73.84
10587;BME280;5341;47.606;7.576;2022-11-15T07:26:58;98350.50;;;11.43;73.88
10587;BME280;5341;47.606;7.576;2022-11-15T07:29:55;98351.34;;;11.43;73.88
10587;BME280;5341;47.606;7.576;2022-11-15T07:33:00;98353.00;;;11.44;73.87
10587;BME280;5341;47.606;7.576;2022-11-15T07:35:49;98348.47;;;11.45;73.89
10587;BME280;5341;47.606;7.576;2022-11-15T07:38:50;98353.81;;;11.45;74.07
10587;BME280;5341;47.606;7.576;2022-11-15T07:41:41;98350.09;;;11.46;74.58
10587;BME280;5341;47.606;7.576;2022-11-15T07:44:56;98352.59;;;11.48;74.15
10587;BME280;5341;47.606;7.576;2022-11-15T07:47:45;98355.25;;;11.48;74.03
10587;BME280;5341;47.606;7.576;2022-11-15T07:50:39;98344.34;;;11.49;74.63
10587;BME280;5341;47.606;7.576;2022-11-15T07:53:29;98351.56;;;11.49;74.57
10587;BME280;5341;47.606;7.576;2022-11-15T07:56:17;98351.34;;;11.50;74.36
10587;BME280;5341;47.606;7.576;2022-11-15T07:59:05;98358.41;;;11.51;74.52
10587;BME280;5341;47.606;7.576;2022-11-15T08:02:00;98360.03;;;11.52;74.71
10587;BME280;5341;47.606;7.576;2022-11-15T08:04:56;98360.88;;;11.53;74.45
10587;BME280;5341;47.606;7.576;2022-11-15T08:07:44;98361.69;;;11.53;74.58
10587;BME280;5341;47.606;7.576;2022-11-15T08:10:32;98366.84;;;11.55;74.23
10587;BME280;5341;47.606;7.576;2022-11-15T08:13:34;98365.81;;;11.56;74.34
10587;BME280;5341;47.606;7.576;2022-11-15T08:16:34;98357.78;;;11.56;74.74
10587;BME280;5341;47.606;7.576;2022-11-15T08:19:23;98352.22;;;11.57;74.78
10587;BME280;5341;47.606;7.576;2022-11-15T08:22:10;98359.25;;;11.58;74.57
10587;BME280;5341;47.606;7.576;2022-11-15T08:24:58;98352.84;;;11.59;74.74
10587;BME280;5341;47.606;7.576;2022-11-15T08:27:45;98346.47;;;11.60;74.26
10587;BME280;5341;47.606;7.576;2022-11-15T08:30:37;98351.63;;;11.62;74.34
10587;BME280;5341;47.606;7.576;2022-11-15T08:33:30;98346.25;;;11.62;74.43
10587;BME280;5341;47.606;7.576;2022-11-15T08:36:18;98341.72;;;11.62;74.59
10587;BME280;5341;47.606;7.576;2022-11-15T08:39:14;98346.91;;;11.64;74.75
10587;BME280;5341;47.606;7.576;2022-11-15T08:42:03;98339.72;;;11.64;74.80
10587;BME280;5341;47.606;7.576;2022-11-15T08:44:50;98337.84;;;11.65;74.64
10587;BME280;5341;47.606;7.576;2022-11-15T08:47:39;98331.47;;;11.66;74.47
10587;BME280;5341;47.606;7.576;2022-11-15T08:50:33;98332.09;;;11.68;74.60
10587;BME280;5341;47.606;7.576;2022-11-15T08:53:20;98325.09;;;11.67;74.53
10587;BME280;5341;47.606;7.576;2022-11-15T08:56:08;98322.19;;;11.68;74.58
10587;BME280;5341;47.606;7.576;2022-11-15T08:58:56;98315.81;;;11.69;74.56
10587;BME280;5341;47.606;7.576;2022-11-15T09:01:46;98318.28;;;11.71;74.44
10587;BME280;5341;47.606;7.576;2022-11-15T09:04:33;98309.44;;;11.70;74.36
10587;BME280;5341;47.606;7.576;2022-11-15T09:07:19;98306.53;;;11.72;74.59
10587;BME280;5341;47.606;7.576;2022-11-15T09:10:07;98296.66;;;11.72;74.27
10587;BME280;5341;47.606;7.576;2022-11-15T09:12:57;98293.78;;;11.74;74.29
10587;BME280;5341;47.606;7.576;2022-11-15T09:15:50;98291.09;;;11.74;74.62
10587;BME280;5341;47.606;7.576;2022-11-15T09:18:42;98304.31;;;11.76;74.76
10587;BME280;5341;47.606;7.576;2022-11-15T09:21:30;98298.97;;;11.76;74.45
10587;BME280;5341;47.606;7.576;2022-11-15T09:24:16;98297.09;;;11.76;74.18
10587;BME280;5341;47.606;7.576;2022-11-15T09:27:03;98296.72;;;11.79;74.13
10587;BME280;5341;47.606;7.576;2022-11-15T09:29:49;98295.88;;;11.79;74.55
10587;BME280;5341;47.606;7.576;2022-11-15T09:32:37;98297.56;;;11.80;74.55
10587;BME280;5341;47.606;7.576;2022-11-15T09:35:24;98295.69;;;11.80;73.86
10587;BME280;5341;47.606;7.576;2022-11-15T09:38:11;98285.81;;;11.81;73.85
10587;BME280;5341;47.606;7.576;2022-11-15T09:44:39;98290.13;;;11.82;74.03
10587;BME280;5341;47.606;7.576;2022-11-15T09:48:03;98289.09;;;11.83;74.06
10587;BME280;5341;47.606;7.576;2022-11-15T09:50:59;98296.31;;;11.82;73.91
10587;BME280;5341;47.606;7.576;2022-11-15T09:53:36;98286.44;;;11.83;74.00
10587;BME280;5341;47.606;7.576;2022-11-15T09:56:15;98290.53;;;11.85;74.50
10587;BME280;5341;47.606;7.576;2022-11-15T09:58:57;98282.31;;;11.87;74.27
10587;BME280;5341;47.606;7.576;2022-11-15T10:01:39;98279.44;;;11.88;74.47
10587;BME280;5341;47.606;7.576;2022-11-15T10:04:17;98272.25;;;11.89;74.33
10587;BME280;5341;47.606;7.576;2022-11-15T10:06:57;98274.72;;;11.90;74.56
10587;BME280;5341;47.606;7.576;2022-11-15T10:09:36;98273.69;;;11.91;74.25
10587;BME280;5341;47.606;7.576;2022-11-15T10:12:09;98278.22;;;11.91;74.31
10587;BME280;5341;47.606;7.576;2022-11-15T10:14:40;98268.94;;;11.93;74.22
10587;BME280;5341;47.606;7.576;2022-11-15T10:20:15;98254.09;;;11.97;74.48
10587;BME280;5341;47.606;7.576;2022-11-15T10:22:47;98248.53;;;11.99;74.75
10587;BME280;5341;47.606;7.576;2022-11-15T10:25:19;98240.09;;;12.02;74.38
10587;BME280;5341;47.606;7.576;2022-11-15T10:27:54;98239.28;;;12.01;74.53
10587;BME280;5341;47.606;7.576;2022-11-15T10:30:23;98236.59;;;12.01;74.85
10587;BME280;5341;47.606;7.576;2022-11-15T10:32:53;98242.56;;;12.03;74.91
10587;BME280;5341;47.606;7.576;2022-11-15T10:35:25;98230.63;;;12.06;74.56
10587;BME280;5341;47.606;7.576;2022-11-15T10:38:05;98240.91;;;12.09;74.46
10587;BME280;5341;47.606;7.576;2022-11-15T10:40:34;98236.38;;;12.10;74.52
10587;BME280;5341;47.606;7.576;2022-11-15T10:43:14;98230.63;;;12.13;74.89
10587;BME280;5341;47.606;7.576;2022-11-15T10:45:44;98217.22;;;12.13;75.03
10587;BME280;5341;47.606;7.576;2022-11-15T10:48:23;98207.75;;;12.17;74.61
10587;BME280;5341;47.606;7.576;2022-11-15T10:50:55;98201.97;;;12.20;74.42
10587;BME280;5341;47.606;7.576;2022-11-15T10:53:32;98201.75;;;12.21;74.19
10587;BME280;5341;47.606;7.576;2022-11-15T10:56:07;98193.31;;;12.24;74.15
10587;BME280;5341;47.606;7.576;2022-11-15T10:58:51;98184.03;;;12.27;74.53
10587;BME280;5341;47.606;7.576;2022-11-15T11:01:27;98180.31;;;12.28;74.51
10587;BME280;5341;47.606;7.576;2022-11-15T11:04:05;98179.06;;;12.30;74.47
10587;BME280;5341;47.606;7.576;2022-11-15T11:09:58;98159.28;;;12.38;74.00
10587;BME280;5341;47.606;7.576;2022-11-15T11:12:43;98153.50;;;12.41;74.22
10587;BME280;5341;47.606;7.576;2022-11-15T11:15:20;98153.88;;;12.45;74.01
10587;BME280;5341;47.606;7.576;2022-11-15T11:18:05;98150.81;;;12.48;74.29
10587;BME280;5341;47.606;7.576;2022-11-15T11:20:39;98149.56;;;12.50;74.15
10587;BME280;5341;47.606;7.576;2022-11-15T11:23:26;98135.94;;;12.52;74.17
10587;BME280;5341;47.606;7.576;2022-11-15T11:26:11;98137.78;;;12.51;73.42
10587;BME280;5341;47.606;7.576;2022-11-15T11:29:10;98126.84;;;12.53;73.67
10587;BME280;5341;47.606;7.576;2022-11-15T11:31:49;98118.59;;;12.54;73.46
10587;BME280;5341;47.606;7.576;2022-11-15T11:34:43;98110.94;;;12.58;73.65
10587;BME280;5341;47.606;7.576;2022-11-15T11:37:29;98098.16;;;12.60;73.71
10587;BME280;5341;47.606;7.576;2022-11-15T11:40:21;98103.31;;;12.61;73.38
10587;BME280;5341;47.606;7.576;2022-11-15T11:43:11;98093.81;;;12.66;73.27
10587;BME280;5341;47.606;7.576;2022-11-15T11:46:10;98094.41;;;12.68;73.21
10587;BME280;5341;47.606;7.576;2022-11-15T11:48:42;98083.25;;;12.71;73.28
10587;BME280;5341;47.606;7.576;2022-11-15T11:51:18;98084.50;;;12.75;73.62
10587;BME280;5341;47.606;7.576;2022-11-15T11:53:56;98077.88;;;12.77;72.98
10587;BME280;5341;47.606;7.576;2022-11-15T11:56:35;98083.03;;;12.79;72.78
10587;BME280;5341;47.606;7.576;2022-11-15T11:59:12;98080.94;;;12.81;72.65
10587;BME280;5341;47.606;7.576;2022-11-15T12:01:44;98085.28;;;12.82;72.56
10587;BME280;5341;47.606;7.576;2022-11-15T12:04:18;98088.56;;;12.84;72.47
10587;BME280;5341;47.606;7.576;2022-11-15T12:06:50;98077.63;;;12.85;72.26
10587;BME280;5341;47.606;7.576;2022-11-15T12:09:23;98078.84;;;12.89;72.34
10587;BME280;5341;47.606;7.576;2022-11-15T12:12:02;98077.81;;;12.90;72.35
10587;BME280;5341;47.606;7.576;2022-11-15T12:14:38;98063.34;;;12.91;72.73
10587;BME280;5341;47.606;7.576;2022-11-15T12:17:09;98057.78;;;12.93;72.39
10587;BME280;5341;47.606;7.576;2022-11-15T12:19:37;98053.22;;;12.94;72.62
10587;BME280;5341;47.606;7.576;2022-11-15T12:22:12;98049.50;;;12.95;72.41
10587;BME280;5341;47.606;7.576;2022-11-15T12:24:45;98053.00;;;12.95;72.33
10587;BME280;5341;47.606;7.576;2022-11-15T12:27:25;98043.91;;;12.96;72.36
10587;BME280;5341;47.606;7.576;2022-11-15T12:30:02;98043.72;;;12.98;72.08
10587;BME280;5341;47.606;7.576;2022-11-15T12:32:33;98050.75;;;12.99;72.07
10587;BME280;5341;47.606;7.576;2022-11-15T12:35:04;98044.53;;;12.98;72.02
10587;BME280;5341;47.606;7.576;2022-11-15T12:40:30;98038.34;;;12.98;71.88
10587;BME280;5341;47.606;7.576;2022-11-15T12:43:35;98035.44;;;12.99;71.88
10587;BME280;5341;47.606;7.576;2022-11-15T12:46:12;98024.72;;;12.99;71.69
10587;BME280;5341;47.606;7.576;2022-11-15T12:48:53;98033.59;;;13.00;72.19
10587;BME280;5341;47.606;7.576;2022-11-15T12:54:58;98011.69;;;13.03;72.19
10587;BME280;5341;47.606;7.576;2022-11-15T12:57:42;97994.75;;;13.02;71.70
10587;BME280;5341;47.606;7.576;2022-11-15T13:00:37;97999.31;;;13.02;72.03
10587;BME280;5341;47.606;7.576;2022-11-15T13:03:25;97986.69;;;13.02;71.76
10587;BME280;5341;47.606;7.576;2022-11-15T13:12:49;97986.31;;;12.99;71.65
10587;BME280;5341;47.606;7.576;2022-11-15T13:18:39;97992.50;;;12.99;71.80
10587;BME280;5341;47.606;7.576;2022-11-15T13:21:22;97979.69;;;13.01;71.61
10587;BME280;5341;47.606;7.576;2022-11-15T13:24:16;97977.00;;;13.01;71.20
10587;BME280;5341;47.606;7.576;2022-11-15T13:26:48;97977.84;;;13.02;71.16
10587;BME280;5341;47.606;7.576;2022-11-15T13:29:20;97975.75;;;13.04;71.20
10587;BME280;5341;47.606;7.576;2022-11-15T13:31:52;97964.19;;;13.03;71.35
10587;BME280;5341;47.606;7.576;2022-11-15T13:34:29;97970.38;;;13.04;71.20
10587;BME280;5341;47.606;7.576;2022-11-15T13:36:59;97966.06;;;13.03;71.08
10587;BME280;5341;47.606;7.576;2022-11-15T13:39:30;97963.38;;;13.03;71.04
10587;BME280;5341;47.606;7.576;2022-11-15T13:41:59;97956.38;;;13.02;71.06
10587;BME280;5341;47.606;7.576;2022-11-15T13:44:28;97956.38;;;13.02;71.12
10587;BME280;5341;47.606;7.576;2022-11-15T13:47:09;97938.41;;;13.02;71.21
10587;BME280;5341;47.606;7.576;2022-11-15T13:49:43;97937.34;;;13.03;71.19
10587;BME280;5341;47.606;7.576;2022-11-15T13:52:14;97930.94;;;13.04;70.94
10587;BME280;5341;47.606;7.576;2022-11-15T13:55:18;97927.00;;;13.07;71.49
10587;BME280;5341;47.606;7.576;2022-11-15T13:57:51;97928.84;;;13.06;70.92
10587;BME280;5341;47.606;7.576;2022-11-15T14:00:33;97917.91;;;13.08;70.83
10587;BME280;5341;47.606;7.576;2022-11-15T14:03:07;97911.72;;;13.07;70.59
10587;BME280;5341;47.606;7.576;2022-11-15T14:05:44;97913.38;;;13.08;70.50
10587;BME280;5341;47.606;7.576;2022-11-15T14:08:23;97905.31;;;13.08;70.22
10587;BME280;5341;47.606;7.576;2022-11-15T14:11:07;97902.66;;;13.08;70.29
10587;BME280;5341;47.606;7.576;2022-11-15T14:13:37;97898.09;;;13.09;70.48
10587;BME280;5341;47.606;7.576;2022-11-15T14:16:17;97887.13;;;13.10;70.13
10587;BME280;5341;47.606;7.576;2022-11-15T14:18:47;97882.00;;;13.09;69.88
10587;BME280;5341;47.606;7.576;2022-11-15T14:21:23;97876.81;;;13.07;70.19
10587;BME280;5341;47.606;7.576;2022-11-15T14:23:51;97881.59;;;13.05;69.59
10587;BME280;5341;47.606;7.576;2022-11-15T14:26:27;97882.41;;;13.06;69.83
10587;BME280;5341;47.606;7.576;2022-11-15T14:28:56;97876.22;;;13.05;69.66
10587;BME280;5341;47.606;7.576;2022-11-15T14:31:25;97883.22;;;13.06;69.40
10587;BME280;5341;47.606;7.576;2022-11-15T14:34:08;97892.09;;;13.07;69.45
10587;BME280;5341;47.606;7.576;2022-11-15T14:36:40;97878.69;;;13.07;69.50
10587;BME280;5341;47.606;7.576;2022-11-15T14:39:09;97872.50;;;13.06;69.16
10587;BME280;5341;47.606;7.576;2022-11-15T14:41:37;97870.63;;;13.07;69.04
10587;BME280;5341;47.606;7.576;2022-11-15T14:44:10;97867.94;;;13.07;68.96
10587;BME280;5341;47.606;7.576;2022-11-15T14:46:44;97856.59;;;13.05;68.66
10587;BME280;5341;47.606;7.576;2022-11-15T14:49:14;97860.34;;;13.04;68.81
10587;BME280;5341;47.606;7.576;2022-11-15T14:51:45;97859.28;;;13.05;69.09
10587;BME280;5341;47.606;7.576;2022-11-15T14:54:13;97857.66;;;13.04;68.67
10587;BME280;5341;47.606;7.576;2022-11-15T14:56:42;97850.41;;;13.04;68.68
10587;BME280;5341;47.606;7.576;2022-11-15T14:59:10;97851.69;;;13.02;68.83
10587;BME280;5341;47.606;7.576;2022-11-15T15:01:38;97846.31;;;13.02;68.58
10587;BME280;5341;47.606;7.576;2022-11-15T15:04:08;97842.00;;;13.01;68.46
10587;BME280;5341;47.606;7.576;2022-11-15T15:06:36;97839.31;;;13.01;68.58
10587;BME280;5341;47.606;7.576;2022-11-15T15:09:06;97838.50;;;13.00;68.68
10587;BME280;5341;47.606;7.576;2022-11-15T15:11:35;97828.00;;;12.99;68.65
10587;BME280;5341;47.606;7.576;2022-11-15T15:14:03;97829.03;;;12.98;68.36